createdAt,value
2018-11-06T00:00:15.329Z,164.17
2018-11-06T00:02:44.235Z,142.90
2018-11-06T00:05:16.478Z,146.53
2018-11-06T00:07:45.593Z,146.60
2018-11-06T00:10:14.198Z,162.27
2018-11-06T00:12:42.730Z,155.13
2018-11-06T00:15:11.594Z,147.23
2018-11-06T00:17:40.563Z,130.10
2018-11-06T00:20:11.442Z,140.80
2018-11-06T00:22:40.080Z,133.33
2018-11-06T00:25:15.314Z,128.17
2018-11-06T00:27:44.603Z,115.70
2018-11-06T00:30:14.140Z,120.83
2018-11-06T00:32:44.065Z,125.03
2018-11-06T00:35:14.991Z,122.77
2018-11-06T00:37:44.346Z,122.20
2018-11-06T00:40:13.078Z,115.33
2018-11-06T00:42:41.639Z,111.93
2018-11-06T00:45:12.438Z,117.30
2018-11-06T00:47:41.325Z,113.63
2018-11-06T00:50:10.959Z,102.67
2018-11-06T00:52:40.626Z,107.87
2018-11-06T00:55:09.593Z,97.93
2018-11-06T00:57:39.517Z,86.03
2018-11-06T01:00:10.927Z,93.40
2018-11-06T01:02:39.434Z,88.00
2018-11-06T01:05:09.578Z,83.33
2018-11-06T01:07:38.171Z,85.13
2018-11-06T01:10:08.036Z,92.00
2018-11-06T01:12:36.655Z,95.37
2018-11-06T01:15:05.677Z,89.40
2018-11-06T01:17:34.211Z,96.73
2018-11-06T01:20:03.017Z,95.13
2018-11-06T01:22:31.874Z,81.80
2018-11-06T01:25:02.112Z,95.47
2018-11-06T01:27:31.028Z,85.37
2018-11-06T01:30:00.439Z,90.43
2018-11-06T01:32:28.948Z,101.70
2018-11-06T01:34:57.515Z,108.87
2018-11-06T01:37:26.059Z,94.87
2018-11-06T01:39:57.619Z,114.37
2018-11-06T01:42:26.194Z,98.43
2018-11-06T01:44:54.774Z,100.03
2018-11-06T01:47:23.434Z,96.07
2018-11-06T01:49:52.790Z,113.70
2018-11-06T01:52:21.403Z,90.40
2018-11-06T01:54:49.956Z,101.03
2018-11-06T01:57:18.510Z,98.27
2018-11-06T01:59:48.275Z,113.37
2018-11-06T02:02:16.824Z,120.30
2018-11-06T02:04:45.972Z,113.23
2018-11-06T02:07:14.594Z,99.37
2018-11-06T02:09:43.077Z,114.03
2018-11-06T02:12:13.172Z,121.57
2018-11-06T02:14:41.779Z,103.87
2018-11-06T02:17:10.368Z,116.43
2018-11-06T02:19:39.003Z,119.20
2018-11-06T02:22:07.562Z,123.60
2018-11-06T02:24:36.276Z,116.47
2018-11-06T02:27:04.831Z,116.63
2018-11-06T02:29:34.014Z,109.30
2018-11-06T02:32:02.570Z,108.27
2018-11-06T02:34:31.154Z,133.43
2018-11-06T02:36:59.795Z,115.37
2018-11-06T02:39:28.319Z,135.73
2018-11-06T02:41:56.946Z,121.80
2018-11-06T02:44:26.365Z,109.50
2018-11-06T02:46:54.881Z,105.47
2018-11-06T02:49:23.398Z,111.23
2018-11-06T02:51:52.328Z,110.73
2018-11-06T02:54:20.874Z,101.10
2018-11-06T02:56:49.433Z,130.13
2018-11-06T02:59:18.102Z,110.03
2018-11-06T03:01:46.676Z,146.83
2018-11-06T03:04:15.999Z,142.60
2018-11-06T03:06:44.590Z,123.43
2018-11-06T03:09:13.874Z,138.77
2018-11-06T03:11:42.441Z,167.53
2018-11-06T03:14:10.986Z,130.57
2018-11-06T03:16:39.630Z,135.77
2018-11-06T03:19:08.134Z,127.00
2018-11-06T03:21:37.134Z,141.37
2018-11-06T03:24:06.571Z,144.50
2018-11-06T03:26:35.194Z,128.50
2018-11-06T03:29:03.687Z,143.43
2018-11-06T03:31:32.940Z,146.10
2018-11-06T03:34:01.438Z,119.33
2018-11-06T03:36:29.913Z,138.43
2018-11-06T03:38:58.449Z,148.43
2018-11-06T03:41:26.995Z,122.10
2018-11-06T03:43:55.490Z,128.30
2018-11-06T03:46:24.125Z,125.20
2018-11-06T03:48:52.638Z,126.23
2018-11-06T03:51:21.201Z,117.17
2018-11-06T03:53:49.701Z,126.63
2018-11-06T03:56:18.198Z,121.93
2018-11-06T03:58:47.440Z,116.13
2018-11-06T04:01:15.991Z,105.53
2018-11-06T04:03:44.535Z,155.10
2018-11-06T04:06:13.055Z,130.90
2018-11-06T04:08:41.546Z,121.77
2018-11-06T04:11:10.310Z,127.23
2018-11-06T04:13:38.878Z,129.23
2018-11-06T04:16:07.411Z,113.97
2018-11-06T04:18:35.969Z,108.33
2018-11-06T04:21:05.150Z,113.07
2018-11-06T04:23:34.291Z,126.10
2018-11-06T04:26:03.442Z,103.73
2018-11-06T04:28:31.945Z,96.17
2018-11-06T04:31:00.469Z,121.30
2018-11-06T04:33:29.039Z,104.57
2018-11-06T04:35:57.528Z,105.13
2018-11-06T04:38:26.093Z,101.80
2018-11-06T04:40:55.300Z,122.70
2018-11-06T04:43:23.773Z,108.20
2018-11-06T04:45:52.347Z,106.80
2018-11-06T04:48:20.892Z,119.27
2018-11-06T04:50:50.001Z,109.73
2018-11-06T04:53:18.526Z,106.60
2018-11-06T04:55:47.092Z,109.10
2018-11-06T04:58:16.321Z,102.23
2018-11-06T05:00:44.835Z,103.40
2018-11-06T05:03:13.992Z,114.77
2018-11-06T05:05:42.509Z,117.53
2018-11-06T05:08:11.079Z,118.50
2018-11-06T05:10:39.738Z,120.97
2018-11-06T05:13:08.294Z,116.17
2018-11-06T05:15:36.867Z,102.73
2018-11-06T05:18:05.971Z,99.43
2018-11-06T05:20:34.555Z,103.63
2018-11-06T05:23:03.060Z,92.53
2018-11-06T05:25:31.799Z,90.60
2018-11-06T05:28:00.261Z,98.27
2018-11-06T05:30:28.842Z,86.97
2018-11-06T05:33:00.395Z,90.03
2018-11-06T05:35:28.967Z,82.30
2018-11-06T05:37:57.576Z,85.13
2018-11-06T05:40:37.365Z,82.57
2018-11-06T05:43:06.191Z,103.30
2018-11-06T05:45:34.769Z,90.90
2018-11-06T05:48:03.291Z,105.03
2018-11-06T05:50:31.847Z,89.27
2018-11-06T05:53:00.349Z,106.73
2018-11-06T05:55:28.914Z,98.73
2018-11-06T05:57:57.454Z,92.87
2018-11-06T06:00:26.031Z,87.43
2018-11-06T06:02:54.523Z,93.73
2018-11-06T06:05:23.130Z,84.50
2018-11-06T06:07:51.678Z,94.00
2018-11-06T06:10:21.216Z,86.90
2018-11-06T06:12:50.508Z,89.53
2018-11-06T06:15:19.117Z,79.17
2018-11-06T06:17:47.721Z,89.93
2018-11-06T06:20:16.307Z,83.40
2018-11-06T06:22:44.864Z,85.47
2018-11-06T06:25:13.382Z,85.20
2018-11-06T06:27:41.954Z,73.10
2018-11-06T06:30:13.168Z,79.70
2018-11-06T06:32:42.758Z,75.93
2018-11-06T06:35:11.591Z,75.03
2018-11-06T06:37:40.114Z,75.27
2018-11-06T06:40:12.186Z,71.30
2018-11-06T06:42:40.884Z,68.93
2018-11-06T06:45:11.384Z,65.50
2018-11-06T06:47:39.945Z,71.43
2018-11-06T06:50:10.680Z,68.63
2018-11-06T06:52:39.839Z,71.37
2018-11-06T06:55:10.058Z,61.60
2018-11-06T06:57:39.739Z,63.63
2018-11-06T07:00:13.402Z,67.70
2018-11-06T07:02:42.130Z,74.50
2018-11-06T07:05:13.187Z,76.57
2018-11-06T07:07:42.578Z,83.60
2018-11-06T07:10:13.034Z,70.73
2018-11-06T07:12:42.839Z,70.90
2018-11-06T07:15:13.575Z,68.73
2018-11-06T07:17:42.717Z,71.23
2018-11-06T07:20:14.247Z,67.50
2018-11-06T07:22:43.551Z,76.93
2018-11-06T07:25:13.738Z,73.03
2018-11-06T07:27:43.150Z,62.50
2018-11-06T07:30:14.379Z,61.30
2018-11-06T07:32:43.911Z,63.90
2018-11-06T07:35:13.259Z,62.80
2018-11-06T07:37:42.427Z,64.83
2018-11-06T07:40:12.350Z,62.40
2018-11-06T07:42:40.992Z,57.13
2018-11-06T07:45:12.251Z,64.63
2018-11-06T07:47:40.947Z,54.13
2018-11-06T07:50:10.363Z,57.57
2018-11-06T07:52:39.673Z,65.13
2018-11-06T07:55:10.618Z,51.60
2018-11-06T07:57:39.498Z,61.13
2018-11-06T08:00:16.509Z,55.65
2018-11-06T08:02:46.106Z,63.47
2018-11-06T08:05:15.058Z,57.50
2018-11-06T08:07:44.477Z,49.43
2018-11-06T08:10:13.696Z,55.83
2018-11-06T08:12:44.172Z,55.60
2018-11-06T08:15:19.374Z,56.23
2018-11-06T08:17:48.419Z,51.73
2018-11-06T08:20:17.103Z,55.07
2018-11-06T08:22:45.637Z,51.23
2018-11-06T08:25:15.434Z,53.10
2018-11-06T08:27:44.702Z,52.53
2018-11-06T08:30:14.876Z,45.78
2018-11-06T08:32:44.458Z,49.57
2018-11-06T08:35:15.391Z,49.43
2018-11-06T08:37:44.240Z,46.43
2018-11-06T08:40:14.205Z,44.47
2018-11-06T08:42:42.838Z,42.73
2018-11-06T08:45:13.478Z,48.93
2018-11-06T08:47:43.058Z,39.27
2018-11-06T08:50:13.109Z,41.13
2018-11-06T08:52:41.937Z,44.80
2018-11-06T08:55:11.567Z,43.10
2018-11-06T08:57:41.611Z,47.73
2018-11-06T09:00:12.594Z,45.97
2018-11-06T09:02:41.116Z,38.50
2018-11-06T09:05:11.565Z,44.37
2018-11-06T09:07:46.626Z,38.20
2018-11-06T09:10:16.071Z,47.98
2018-11-06T09:12:46.838Z,39.60
2018-11-06T09:15:16.919Z,42.63
2018-11-06T09:17:45.787Z,44.00
2018-11-06T09:20:15.653Z,43.17
2018-11-06T09:22:44.182Z,41.80
2018-11-06T09:25:13.989Z,42.60
2018-11-06T09:27:43.309Z,51.37
2018-11-06T09:30:14.187Z,43.20
2018-11-06T09:32:42.751Z,38.57
2018-11-06T09:35:12.609Z,44.07
2018-11-06T09:37:41.783Z,41.10
2018-11-06T09:40:12.661Z,40.17
2018-11-06T09:42:41.403Z,40.10
2018-11-06T09:45:10.605Z,36.13
2018-11-06T09:47:39.045Z,44.17
2018-11-06T09:50:12.071Z,41.40
2018-11-06T09:52:40.769Z,35.27
2018-11-06T09:55:09.385Z,41.97
2018-11-06T09:57:37.913Z,31.93
2018-11-06T10:00:09.624Z,35.07
2018-11-06T10:02:38.260Z,33.33
2018-11-06T10:05:08.164Z,38.17
2018-11-06T10:07:37.382Z,40.90
2018-11-06T10:10:08.090Z,32.90
2018-11-06T10:12:37.115Z,40.93
2018-11-06T10:15:07.182Z,30.17
2018-11-06T10:17:37.242Z,37.63
2018-11-06T10:20:07.656Z,34.37
2018-11-06T10:22:36.178Z,38.03
2018-11-06T10:25:05.571Z,33.60
2018-11-06T10:27:34.739Z,31.80
2018-11-06T10:30:03.559Z,29.57
2018-11-06T10:32:32.207Z,27.63
2018-11-06T10:35:00.956Z,30.63
2018-11-06T10:37:29.547Z,26.13
2018-11-06T10:39:58.144Z,26.57
2018-11-06T10:42:26.683Z,24.10
2018-11-06T10:44:55.226Z,25.87
2018-11-06T10:47:23.763Z,27.10
2018-11-06T10:49:52.297Z,29.90
2018-11-06T10:52:21.389Z,27.17
2018-11-06T10:54:52.986Z,25.70
2018-11-06T10:57:21.528Z,25.90
2018-11-06T10:59:50.086Z,23.50
2018-11-06T11:03:24.867Z,30.33
2018-11-06T11:05:53.442Z,29.40
2018-11-06T11:08:21.979Z,31.30
2018-11-06T11:10:51.199Z,23.67
2018-11-06T11:13:19.757Z,29.43
2018-11-06T11:15:48.401Z,25.07
2018-11-06T11:18:17.414Z,29.50
2018-11-06T11:20:46.845Z,26.03
2018-11-06T11:23:15.379Z,32.80
2018-11-06T11:25:44.058Z,28.53
2018-11-06T11:28:12.838Z,28.10
2018-11-06T11:30:42.229Z,27.10
2018-11-06T11:33:11.748Z,31.00
2018-11-06T11:35:40.296Z,27.53
2018-11-06T11:38:08.859Z,25.33
2018-11-06T11:40:37.521Z,23.57
2018-11-06T11:43:06.397Z,23.20
2018-11-06T11:45:34.968Z,22.33
2018-11-06T11:48:03.474Z,28.90
2018-11-06T11:50:32.069Z,26.07
2018-11-06T11:53:00.566Z,24.97
2018-11-06T11:55:29.117Z,23.83
2018-11-06T11:57:57.666Z,22.63
2018-11-06T12:00:28.406Z,23.60
2018-11-06T12:02:57.421Z,25.70
2018-11-06T12:05:25.937Z,25.57
2018-11-06T12:07:54.505Z,26.27
2018-11-06T12:10:23.027Z,21.03
2018-11-06T12:12:51.581Z,21.30
2018-11-06T12:15:20.164Z,26.70
2018-11-06T12:17:55.113Z,17.20
2018-11-06T12:20:23.610Z,23.97
2018-11-06T12:22:52.269Z,24.03
2018-11-06T12:25:21.045Z,25.33
2018-11-06T12:27:49.387Z,20.00
2018-11-06T12:30:18.320Z,24.07
2018-11-06T12:32:46.884Z,22.00
2018-11-06T12:35:18.602Z,21.80
2018-11-06T12:37:47.836Z,21.37
2018-11-06T12:40:17.379Z,20.40
2018-11-06T12:42:45.990Z,21.73
2018-11-06T12:45:16.397Z,21.83
2018-11-06T12:47:45.438Z,25.17
2018-11-06T12:50:14.071Z,17.30
2018-11-06T12:52:42.935Z,22.90
2018-11-06T12:55:13.116Z,19.10
2018-11-06T12:57:41.686Z,19.17
2018-11-06T13:00:13.420Z,23.40
2018-11-06T13:02:42.953Z,21.50
2018-11-06T13:05:12.215Z,22.87
2018-11-06T13:07:41.846Z,19.00
2018-11-06T13:10:11.868Z,23.20
2018-11-06T13:12:41.187Z,21.10
2018-11-06T13:15:11.465Z,16.77
2018-11-06T13:17:40.015Z,24.73
2018-11-06T13:20:10.593Z,22.30
2018-11-06T13:22:40.007Z,20.50
2018-11-06T13:25:15.116Z,21.30
2018-11-06T13:27:43.820Z,19.27
2018-11-06T13:30:15.205Z,18.60
2018-11-06T13:32:44.485Z,16.27
2018-11-06T13:35:13.741Z,18.00
2018-11-06T13:37:42.337Z,14.87
2018-11-06T13:40:12.341Z,19.20
2018-11-06T13:42:41.064Z,17.93
2018-11-06T13:45:12.526Z,17.73
2018-11-06T13:47:41.018Z,16.10
2018-11-06T13:50:09.688Z,21.10
2018-11-06T13:52:39.062Z,16.50
2018-11-06T13:55:10.416Z,24.77
2018-11-06T13:57:39.025Z,15.07
2018-11-06T14:00:12.810Z,17.42
2018-11-06T14:02:41.935Z,14.63
2018-11-06T14:05:10.503Z,20.00
2018-11-06T14:07:39.158Z,18.07
2018-11-06T14:10:09.223Z,19.82
2018-11-06T14:12:37.801Z,19.50
2018-11-06T14:15:06.594Z,18.60
2018-11-06T14:17:35.331Z,20.87
2018-11-06T14:20:04.222Z,21.13
2018-11-06T14:22:32.731Z,19.97
2018-11-06T14:25:01.366Z,17.03
2018-11-06T14:27:29.955Z,19.17
2018-11-06T14:29:58.510Z,22.10
2018-11-06T14:32:27.086Z,19.00
2018-11-06T14:34:56.331Z,16.60
2018-11-06T14:37:25.557Z,17.00
2018-11-06T14:39:54.157Z,19.10
2018-11-06T14:42:23.279Z,16.17
2018-11-06T14:44:53.658Z,23.00
2018-11-06T14:47:22.297Z,20.93
2018-11-06T14:49:50.877Z,18.83
2018-11-06T14:52:19.479Z,21.43
2018-11-06T14:54:48.012Z,19.83
2018-11-06T14:57:16.591Z,17.47
2018-11-06T14:59:45.094Z,20.77
2018-11-06T15:02:14.222Z,16.43
2018-11-06T15:04:42.779Z,20.10
2018-11-06T15:07:11.351Z,17.70
2018-11-06T15:09:39.902Z,14.73
2018-11-06T15:12:08.409Z,14.50
2018-11-06T15:14:36.971Z,17.30
2018-11-06T15:17:06.030Z,14.23
2018-11-06T15:19:34.690Z,18.37
2018-11-06T15:22:03.698Z,13.90
2018-11-06T15:24:32.193Z,19.87
2018-11-06T15:27:00.853Z,16.53
2018-11-06T15:29:29.363Z,15.83
2018-11-06T15:31:57.929Z,24.90
2018-11-06T15:34:26.473Z,21.80
2018-11-06T15:36:55.020Z,20.37
2018-11-06T15:39:23.613Z,21.23
2018-11-06T15:41:52.243Z,19.63
2018-11-06T15:44:20.672Z,21.93
2018-11-06T15:46:49.765Z,19.27
2018-11-06T15:49:18.411Z,18.10
2018-11-06T15:51:46.983Z,20.87
2018-11-06T15:54:15.515Z,21.50
2018-11-06T15:56:44.067Z,24.83
2018-11-06T15:59:12.654Z,29.03
2018-11-06T16:01:41.237Z,27.20
2018-11-06T16:04:09.788Z,20.93
2018-11-06T16:06:38.480Z,24.53
2018-11-06T16:09:07.779Z,26.90
2018-11-06T16:11:36.286Z,26.80
2018-11-06T16:14:04.868Z,25.27
2018-11-06T16:16:34.707Z,26.73
2018-11-06T16:19:03.689Z,23.03
2018-11-06T16:21:32.284Z,24.43
2018-11-06T16:24:01.074Z,24.73
2018-11-06T16:26:29.965Z,31.37
2018-11-06T16:28:58.502Z,25.80
2018-11-06T16:31:27.071Z,30.03
2018-11-06T16:33:55.657Z,24.10
2018-11-06T16:36:24.629Z,29.00
2018-11-06T16:38:53.670Z,30.63
2018-11-06T16:41:22.296Z,29.43
2018-11-06T16:43:50.978Z,29.63
2018-11-06T16:46:19.538Z,27.82
2018-11-06T16:48:48.098Z,33.27
2018-11-06T16:51:16.622Z,28.00
2018-11-06T16:53:46.301Z,31.27
2018-11-06T16:56:14.883Z,26.23
2018-11-06T16:58:43.455Z,35.10
2018-11-06T17:01:12.910Z,36.80
2018-11-06T17:03:41.478Z,26.13
2018-11-06T17:06:15.134Z,30.70
2018-11-06T17:08:43.935Z,33.23
2018-11-06T17:11:12.441Z,29.20
2018-11-06T17:13:41.020Z,32.63
2018-11-06T17:16:09.562Z,36.13
2018-11-06T17:18:38.186Z,33.37
2018-11-06T17:21:07.695Z,36.10
2018-11-06T17:23:36.856Z,34.27
2018-11-06T17:26:05.753Z,25.63
2018-11-06T17:28:34.391Z,29.10
2018-11-06T17:31:02.898Z,34.97
2018-11-06T17:33:31.400Z,40.80
2018-11-06T17:35:59.910Z,36.10
2018-11-06T17:38:28.453Z,35.57
2018-11-06T17:40:57.013Z,44.20
2018-11-06T17:43:25.582Z,36.73
2018-11-06T17:45:54.113Z,38.87
2018-11-06T17:48:23.275Z,40.80
2018-11-06T17:50:52.371Z,32.10
2018-11-06T17:53:20.994Z,39.20
2018-11-06T17:55:49.543Z,37.93
2018-11-06T17:58:18.092Z,37.90
2018-11-06T18:00:46.703Z,41.00
2018-11-06T18:03:15.234Z,35.83
2018-11-06T18:05:43.961Z,41.00
2018-11-06T18:08:12.486Z,38.30
2018-11-06T18:10:42.340Z,33.60
2018-11-06T18:13:10.848Z,30.20
2018-11-06T18:15:40.121Z,38.77
2018-11-06T18:18:08.820Z,37.73
2018-11-06T18:20:37.357Z,37.17
2018-11-06T18:23:06.367Z,41.53
2018-11-06T18:25:35.040Z,40.37
2018-11-06T18:28:04.306Z,39.33
2018-11-06T18:30:32.876Z,39.13
2018-11-06T18:33:01.431Z,35.90
2018-11-06T18:35:30.019Z,32.73
2018-11-06T18:37:58.551Z,42.37
2018-11-06T18:40:27.129Z,33.37
2018-11-06T18:42:55.688Z,35.97
2018-11-06T18:45:24.810Z,40.63
2018-11-06T18:47:54.053Z,31.57
2018-11-06T18:50:22.642Z,44.37
2018-11-06T18:52:51.811Z,38.17
2018-11-06T18:55:20.583Z,37.60
2018-11-06T18:57:49.177Z,46.97
2018-11-06T19:00:21.994Z,35.67
2018-11-06T19:02:51.581Z,38.20
2018-11-06T19:05:21.022Z,37.93
2018-11-06T19:07:49.627Z,37.00
2018-11-06T19:10:18.544Z,38.40
2018-11-06T19:12:47.528Z,46.67
2018-11-06T19:15:18.309Z,37.93
2018-11-06T19:17:47.603Z,49.93
2018-11-06T19:20:16.774Z,39.03
2018-11-06T19:22:45.988Z,39.50
2018-11-06T19:25:15.866Z,39.67
2018-11-06T19:27:44.672Z,44.97
2018-11-06T19:30:16.368Z,41.85
2018-11-06T19:32:45.267Z,43.87
2018-11-06T19:35:14.197Z,45.07
2018-11-06T19:37:43.218Z,39.50
2018-11-06T19:40:16.251Z,44.37
2018-11-06T19:42:45.818Z,45.40
2018-11-06T19:45:14.767Z,42.70
2018-11-06T19:47:43.544Z,45.47
2018-11-06T19:50:14.991Z,42.20
2018-11-06T19:52:43.625Z,43.23
2018-11-06T19:55:13.724Z,41.30
2018-11-06T19:57:42.290Z,49.97
2018-11-06T20:00:28.150Z,36.97
2018-11-06T20:02:56.695Z,42.00
2018-11-06T20:05:25.514Z,51.18
2018-11-06T20:07:54.129Z,49.00
2018-11-06T20:10:24.365Z,47.93
2018-11-06T20:12:54.095Z,40.63
2018-11-06T20:15:23.533Z,36.73
2018-11-06T20:17:53.441Z,47.10
2018-11-06T20:20:23.914Z,57.10
2018-11-06T20:22:52.649Z,40.73
2018-11-06T20:25:21.190Z,40.97
2018-11-06T20:27:50.395Z,44.77
2018-11-06T20:30:20.422Z,45.67
2018-11-06T20:32:48.989Z,42.37
2018-11-06T20:35:18.037Z,43.00
2018-11-06T20:37:46.609Z,51.80
2018-11-06T20:40:17.001Z,44.37
2018-11-06T20:42:46.963Z,40.97
2018-11-06T20:45:16.798Z,42.93
2018-11-06T20:47:45.765Z,53.50
2018-11-06T20:50:22.375Z,36.35
2018-11-06T20:52:50.992Z,54.57
2018-11-06T20:55:20.674Z,55.73
2018-11-06T20:57:49.445Z,48.27
2018-11-06T21:00:21.516Z,41.90
2018-11-06T21:02:50.807Z,43.40
2018-11-06T21:05:19.338Z,47.03
2018-11-06T21:07:48.422Z,48.27
2018-11-06T21:10:18.778Z,40.00
2018-11-06T21:12:47.383Z,38.13
2018-11-06T21:15:15.986Z,39.93
2018-11-06T21:17:44.767Z,42.03
2018-11-06T21:20:14.107Z,40.30
2018-11-06T21:22:43.017Z,39.27
2018-11-06T21:25:12.117Z,44.37
2018-11-06T21:27:41.813Z,42.57
2018-11-06T21:30:12.108Z,36.87
2018-11-06T21:32:42.015Z,36.57
2018-11-06T21:35:11.160Z,35.30
2018-11-06T21:37:40.436Z,38.83
2018-11-06T21:40:11.159Z,42.13
2018-11-06T21:42:40.300Z,42.30
2018-11-06T21:45:10.212Z,39.83
2018-11-06T21:47:39.033Z,40.30
2018-11-06T21:50:11.358Z,41.02
2018-11-06T21:52:40.870Z,36.97
2018-11-06T21:55:10.799Z,39.47
2018-11-06T21:57:39.532Z,38.93
2018-11-06T22:00:10.804Z,38.78
2018-11-06T22:02:39.740Z,38.83
2018-11-06T22:05:10.255Z,37.33
2018-11-06T22:07:38.955Z,42.07
2018-11-06T22:10:09.201Z,42.93
2018-11-06T22:12:37.745Z,40.43
2018-11-06T22:15:07.767Z,43.03
2018-11-06T22:17:36.591Z,42.23
2018-11-06T22:20:06.447Z,36.53
2018-11-06T22:22:35.144Z,37.10
2018-11-06T22:25:03.866Z,36.93
2018-11-06T22:27:33.027Z,40.77
2018-11-06T22:30:01.506Z,40.10
2018-11-06T22:32:30.051Z,36.70
2018-11-06T22:34:59.551Z,36.03
2018-11-06T22:37:28.376Z,36.70
2018-11-06T22:39:57.958Z,31.83
2018-11-06T22:42:26.474Z,40.10
2018-11-06T22:44:55.112Z,36.77
2018-11-06T22:47:23.679Z,29.20
2018-11-06T22:49:52.211Z,33.13
2018-11-06T22:52:20.723Z,32.83
2018-11-06T22:54:49.265Z,36.73
2018-11-06T22:57:17.869Z,34.70
2018-11-06T22:59:46.986Z,33.70
2018-11-06T23:02:15.602Z,29.72
2018-11-06T23:04:44.165Z,31.70
2018-11-06T23:07:18.180Z,32.13
2018-11-06T23:09:46.680Z,31.20
2018-11-06T23:12:15.199Z,35.23
2018-11-06T23:14:43.737Z,27.53
2018-11-06T23:17:12.307Z,38.30
2018-11-06T23:19:41.538Z,24.60
2018-11-06T23:22:10.074Z,25.10
2018-11-06T23:24:38.742Z,30.90
2018-11-06T23:27:07.710Z,23.93
2018-11-06T23:29:37.318Z,26.23
2018-11-06T23:32:06.755Z,40.53
2018-11-06T23:34:35.293Z,33.50
2018-11-06T23:37:03.887Z,27.50
2018-11-06T23:39:33.228Z,26.37
2018-11-06T23:42:01.766Z,26.90
2018-11-06T23:44:32.531Z,24.70
2018-11-06T23:47:04.290Z,30.17
2018-11-06T23:49:33.238Z,24.93
2018-11-06T23:52:03.638Z,30.27
2018-11-06T23:54:32.793Z,24.40
2018-11-06T23:57:01.390Z,24.90
2018-11-06T23:59:30.908Z,26.07
